createdAt,value
2023-02-26T00:01:42.166Z,20.50
2023-02-26T00:04:10.811Z,21.52
2023-02-26T00:06:53.224Z,19.65
2023-02-26T00:09:24.402Z,18.33
2023-02-26T00:11:52.381Z,20.00
2023-02-26T00:14:21.553Z,19.75
2023-02-26T00:17:18.205Z,19.83
2023-02-26T00:19:46.167Z,17.75
2023-02-26T00:22:14.204Z,19.80
2023-02-26T00:24:42.401Z,20.77
2023-02-26T00:27:11.789Z,18.05
2023-02-26T00:29:40.041Z,18.85
2023-02-26T00:32:08.133Z,19.73
2023-02-26T00:34:37.354Z,18.63
2023-02-26T00:37:07.116Z,18.75
2023-02-26T00:39:46.613Z,18.52
2023-02-26T00:42:15.113Z,20.00
2023-02-26T00:44:44.637Z,18.42
2023-02-26T00:47:30.455Z,18.35
2023-02-26T00:50:14.101Z,18.15
2023-02-26T00:53:02.397Z,17.80
2023-02-26T00:55:31.302Z,18.92
2023-02-26T00:57:58.987Z,21.23
2023-02-26T01:00:27.109Z,18.58
2023-02-26T01:02:55.203Z,22.92
2023-02-26T01:05:23.233Z,19.52
2023-02-26T01:07:54.531Z,20.15
2023-02-26T01:10:22.802Z,19.17
2023-02-26T01:12:54.105Z,17.95
2023-02-26T01:15:22.227Z,20.10
2023-02-26T01:18:14.298Z,18.85
2023-02-26T01:20:56.788Z,19.20
2023-02-26T01:23:35.508Z,19.25
2023-02-26T01:26:10.702Z,19.87
2023-02-26T01:28:38.856Z,18.80
2023-02-26T01:31:15.805Z,20.95
2023-02-26T01:33:51.627Z,19.13
2023-02-26T01:36:25.354Z,19.80
2023-02-26T01:39:06.487Z,18.85
2023-02-26T01:41:36.853Z,18.42
2023-02-26T01:44:25.522Z,18.92
2023-02-26T01:47:05.595Z,19.57
2023-02-26T01:49:35.271Z,20.02
2023-02-26T01:52:08.286Z,21.02
2023-02-26T01:54:39.270Z,25.02
2023-02-26T01:57:18.700Z,23.33
2023-02-26T01:59:51.330Z,18.17
2023-02-26T02:02:23.122Z,22.30
2023-02-26T02:04:51.564Z,18.90
2023-02-26T02:07:20.731Z,19.92
2023-02-26T02:09:48.588Z,18.85
2023-02-26T02:12:35.789Z,17.88
2023-02-26T02:15:17.051Z,18.75
2023-02-26T02:18:08.802Z,20.38
2023-02-26T02:21:16.795Z,18.08
2023-02-26T02:24:11.760Z,18.73
2023-02-26T02:26:59.138Z,17.33
2023-02-26T02:29:45.252Z,17.33
2023-02-26T02:32:31.111Z,18.40
2023-02-26T02:35:12.936Z,18.80
2023-02-26T02:37:58.946Z,19.10
2023-02-26T02:40:39.445Z,20.58
2023-02-26T02:43:15.042Z,18.98
2023-02-26T02:45:54.571Z,19.52
2023-02-26T02:48:32.354Z,20.95
2023-02-26T02:51:09.997Z,20.63
2023-02-26T02:53:48.208Z,22.13
2023-02-26T02:56:21.633Z,18.05
2023-02-26T02:58:56.136Z,19.85
2023-02-26T03:01:27.807Z,19.63
2023-02-26T03:04:02.662Z,17.70
2023-02-26T03:06:32.690Z,17.98
2023-02-26T03:09:09.620Z,19.15
2023-02-26T03:11:41.977Z,18.23
2023-02-26T03:14:10.827Z,18.38
2023-02-26T03:17:02.241Z,17.50
2023-02-26T03:19:57.980Z,18.70
2023-02-26T03:23:09.388Z,18.08
2023-02-26T03:26:01.094Z,17.83
2023-02-26T03:28:44.327Z,17.80
2023-02-26T03:31:23.354Z,18.58
2023-02-26T03:33:50.937Z,18.08
2023-02-26T03:36:25.969Z,19.65
2023-02-26T03:39:07.764Z,17.85
2023-02-26T03:41:44.362Z,19.67
2023-02-26T03:44:24.510Z,19.10
2023-02-26T03:46:58.774Z,27.98
2023-02-26T03:49:42.310Z,19.40
2023-02-26T03:52:12.483Z,19.20
2023-02-26T03:55:19.407Z,21.35
2023-02-26T03:57:53.976Z,18.35
2023-02-26T04:00:30.335Z,19.42
2023-02-26T04:03:33.244Z,20.52
2023-02-26T04:06:02.099Z,19.63
2023-02-26T04:08:33.286Z,20.35
2023-02-26T04:11:09.218Z,20.15
2023-02-26T04:13:38.413Z,20.70
2023-02-26T04:16:06.796Z,20.05
2023-02-26T04:18:34.472Z,20.83
2023-02-26T04:21:02.917Z,19.75
2023-02-26T04:23:30.930Z,22.55
2023-02-26T04:25:59.487Z,24.17
2023-02-26T04:28:27.783Z,25.15
2023-02-26T04:30:57.999Z,25.98
2023-02-26T04:33:27.024Z,27.35
2023-02-26T04:35:54.552Z,29.25
2023-02-26T04:38:22.326Z,29.88
2023-02-26T04:40:51.023Z,26.90
2023-02-26T04:43:20.075Z,26.75
2023-02-26T04:46:17.377Z,27.13
2023-02-26T04:48:45.051Z,27.30
2023-02-26T04:51:12.743Z,26.75
2023-02-26T04:53:40.717Z,27.83
2023-02-26T04:56:08.380Z,26.33
2023-02-26T04:58:36.174Z,26.48
2023-02-26T05:01:13.757Z,26.67
2023-02-26T05:03:41.470Z,27.33
2023-02-26T05:06:09.279Z,25.85
2023-02-26T05:08:42.328Z,25.40
2023-02-26T05:11:11.400Z,25.13
2023-02-26T05:13:39.717Z,24.85
2023-02-26T05:16:08.345Z,24.15
2023-02-26T05:21:05.722Z,23.20
2023-02-26T05:23:34.821Z,24.58
2023-02-26T05:26:02.614Z,30.25
2023-02-26T05:28:31.358Z,23.58
2023-02-26T05:30:59.138Z,22.38
2023-02-26T05:33:27.226Z,21.45
2023-02-26T05:35:55.308Z,22.10
2023-02-26T05:38:23.195Z,22.02
2023-02-26T05:40:50.878Z,22.15
2023-02-26T05:43:18.681Z,22.35
2023-02-26T05:45:47.136Z,22.30
2023-02-26T05:48:17.818Z,23.98
2023-02-26T05:50:45.556Z,21.95
2023-02-26T05:53:12.930Z,22.35
2023-02-26T05:55:41.184Z,21.52
2023-02-26T05:58:11.347Z,20.67
2023-02-26T06:00:39.369Z,21.58
2023-02-26T06:03:08.404Z,21.02
2023-02-26T06:05:39.582Z,20.67
2023-02-26T06:08:07.412Z,21.08
2023-02-26T06:10:35.100Z,19.38
2023-02-26T06:13:03.124Z,19.70
2023-02-26T06:15:30.742Z,19.38
2023-02-26T06:17:58.663Z,20.10
2023-02-26T06:20:26.181Z,20.15
2023-02-26T06:22:54.474Z,19.88
2023-02-26T06:25:22.769Z,18.98
2023-02-26T06:27:50.495Z,18.95
2023-02-26T06:30:18.606Z,18.38
2023-02-26T06:32:47.289Z,18.35
2023-02-26T06:35:15.120Z,18.20
2023-02-26T06:37:43.297Z,18.30
2023-02-26T06:40:12.082Z,18.00
2023-02-26T06:42:39.724Z,17.83
2023-02-26T06:45:08.015Z,17.80
2023-02-26T06:47:35.851Z,17.50
2023-02-26T06:50:04.304Z,16.55
2023-02-26T06:52:33.216Z,17.25
2023-02-26T06:55:03.945Z,16.13
2023-02-26T06:57:31.909Z,15.60
2023-02-26T07:00:01.161Z,16.48
2023-02-26T07:02:29.191Z,17.17
2023-02-26T07:04:57.754Z,16.30
2023-02-26T07:07:25.861Z,16.02
2023-02-26T07:09:53.500Z,16.42
2023-02-26T07:12:21.057Z,18.80
2023-02-26T07:14:49.455Z,17.50
2023-02-26T07:17:21.520Z,17.40
2023-02-26T07:19:50.957Z,16.90
2023-02-26T07:22:21.870Z,17.00
2023-02-26T07:24:51.361Z,16.52
2023-02-26T07:27:19.387Z,17.02
2023-02-26T07:29:52.405Z,16.95
2023-02-26T07:32:20.284Z,17.50
2023-02-26T07:34:48.092Z,16.60
2023-02-26T07:37:15.875Z,16.73
2023-02-26T07:39:43.773Z,14.70
2023-02-26T07:42:13.007Z,16.05
2023-02-26T07:44:43.648Z,16.25
2023-02-26T07:47:12.144Z,15.80
2023-02-26T07:49:40.213Z,18.17
2023-02-26T07:52:14.815Z,14.70
2023-02-26T07:54:42.700Z,14.95
2023-02-26T07:57:12.539Z,15.05
2023-02-26T07:59:40.770Z,14.52
2023-02-26T08:02:08.397Z,14.90
2023-02-26T08:04:36.572Z,14.02
2023-02-26T08:07:04.540Z,13.27
2023-02-26T08:09:33.275Z,14.20
2023-02-26T08:12:01.405Z,12.85
2023-02-26T08:14:29.102Z,13.80
2023-02-26T08:16:56.794Z,13.20
2023-02-26T08:19:24.497Z,12.82
2023-02-26T08:21:55.352Z,13.75
2023-02-26T08:24:23.099Z,16.92
2023-02-26T08:26:51.770Z,17.67
2023-02-26T08:29:20.419Z,19.85
2023-02-26T08:31:49.244Z,17.42
2023-02-26T08:34:17.614Z,13.65
2023-02-26T08:36:45.438Z,9.45
2023-02-26T08:39:13.101Z,9.38
2023-02-26T08:41:40.894Z,9.05
2023-02-26T08:44:08.489Z,9.65
2023-02-26T08:46:37.096Z,10.07
2023-02-26T08:49:04.751Z,9.77
2023-02-26T08:51:33.650Z,8.88
2023-02-26T08:54:01.387Z,10.80
2023-02-26T08:56:29.917Z,11.10
2023-02-26T08:58:57.536Z,10.00
2023-02-26T09:01:25.509Z,10.80
2023-02-26T09:03:53.413Z,10.20
2023-02-26T09:06:20.976Z,9.73
2023-02-26T09:08:49.471Z,10.52
2023-02-26T09:11:17.186Z,10.37
2023-02-26T09:13:44.958Z,9.82
2023-02-26T09:16:13.516Z,10.50
2023-02-26T09:18:42.543Z,10.82
2023-02-26T09:21:10.480Z,12.07
2023-02-26T09:23:38.140Z,11.40
2023-02-26T09:26:08.978Z,12.90
2023-02-26T09:28:36.820Z,12.90
2023-02-26T09:31:08.246Z,12.80
2023-02-26T09:33:36.699Z,14.10
2023-02-26T09:36:05.029Z,12.77
2023-02-26T09:38:32.615Z,14.48
2023-02-26T09:41:08.514Z,14.63
2023-02-26T09:43:58.749Z,13.10
2023-02-26T09:46:34.045Z,11.48
2023-02-26T09:49:28.906Z,11.38
2023-02-26T09:52:04.804Z,10.35
2023-02-26T09:54:41.794Z,8.98
2023-02-26T09:57:14.128Z,8.85
2023-02-26T09:59:42.389Z,9.75
2023-02-26T10:02:21.401Z,9.68
2023-02-26T10:05:00.356Z,9.52
2023-02-26T10:07:42.560Z,9.20
2023-02-26T10:10:35.528Z,9.70
2023-02-26T10:13:36.834Z,8.65
2023-02-26T10:16:14.886Z,9.85
2023-02-26T10:18:54.042Z,10.95
2023-02-26T10:21:46.811Z,10.57
2023-02-26T10:24:22.794Z,11.02
2023-02-26T10:27:10.266Z,11.05
2023-02-26T10:29:48.296Z,10.98
2023-02-26T10:32:38.930Z,9.43
2023-02-26T10:35:12.412Z,9.60
2023-02-26T10:38:02.990Z,9.05
2023-02-26T10:40:42.666Z,10.93
2023-02-26T10:43:16.880Z,10.02
2023-02-26T10:46:00.675Z,10.43
2023-02-26T10:49:18.912Z,10.85
2023-02-26T10:51:47.462Z,9.15
2023-02-26T10:54:24.908Z,10.30
2023-02-26T10:56:52.714Z,9.60
2023-02-26T10:59:21.928Z,11.00
2023-02-26T11:01:51.191Z,11.38
2023-02-26T11:04:23.579Z,11.80
2023-02-26T11:06:55.113Z,13.10
2023-02-26T11:09:26.926Z,12.07
2023-02-26T11:12:01.831Z,11.70
2023-02-26T11:14:32.960Z,11.30
2023-02-26T11:17:11.103Z,12.70
2023-02-26T11:19:49.908Z,14.55
2023-02-26T11:22:18.684Z,13.07
2023-02-26T11:24:49.020Z,12.45
2023-02-26T11:27:24.159Z,10.68
2023-02-26T11:30:03.729Z,13.00
2023-02-26T11:32:33.994Z,11.43
2023-02-26T11:35:08.939Z,11.18
2023-02-26T11:37:42.314Z,12.38
2023-02-26T11:40:22.236Z,10.43
2023-02-26T11:42:55.165Z,12.20
2023-02-26T11:45:23.014Z,12.90
2023-02-26T11:48:02.430Z,12.82
2023-02-26T11:50:34.579Z,13.52
2023-02-26T11:53:08.439Z,13.68
2023-02-26T11:55:48.285Z,14.38
2023-02-26T11:58:23.548Z,13.10
2023-02-26T12:00:57.952Z,13.45
2023-02-26T12:03:33.445Z,11.65
2023-02-26T12:06:04.861Z,12.98
2023-02-26T12:08:38.655Z,11.15
2023-02-26T12:11:31.528Z,12.68
2023-02-26T12:14:13.909Z,13.27
2023-02-26T12:17:07.219Z,13.20
2023-02-26T12:19:42.628Z,13.27
2023-02-26T12:22:35.413Z,11.77
2023-02-26T12:25:14.896Z,11.73
2023-02-26T12:31:27.765Z,12.38
2023-02-26T12:34:23.609Z,12.90
2023-02-26T12:37:10.037Z,14.23
2023-02-26T12:39:56.144Z,14.82
2023-02-26T12:42:45.382Z,14.00
2023-02-26T12:45:53.940Z,13.43
2023-02-26T12:48:54.814Z,16.02
2023-02-26T12:51:49.250Z,15.90
2023-02-26T12:54:50.683Z,14.15
2023-02-26T12:57:24.087Z,13.70
2023-02-26T13:00:18.917Z,13.07
2023-02-26T13:03:15.041Z,11.10
2023-02-26T13:06:01.335Z,11.35
2023-02-26T13:09:04.058Z,11.75
2023-02-26T13:11:59.099Z,12.52
2023-02-26T13:15:05.172Z,13.57
2023-02-26T13:17:44.556Z,14.30
2023-02-26T13:20:22.312Z,13.02
2023-02-26T13:23:02.073Z,13.15
2023-02-26T13:25:39.251Z,14.18
2023-02-26T13:28:30.995Z,14.23
2023-02-26T13:31:00.882Z,13.77
2023-02-26T13:33:31.931Z,14.25
2023-02-26T13:36:01.501Z,14.93
2023-02-26T13:38:46.763Z,13.90
2023-02-26T13:41:38.329Z,14.30
2023-02-26T13:44:39.117Z,13.98
2023-02-26T13:47:30.024Z,14.25
2023-02-26T13:50:30.798Z,16.38
2023-02-26T13:53:25.030Z,14.80
2023-02-26T13:55:54.342Z,16.15
2023-02-26T13:58:24.845Z,15.68
2023-02-26T14:01:25.787Z,15.95
2023-02-26T14:04:09.551Z,15.82
2023-02-26T14:06:43.661Z,15.70
2023-02-26T14:09:23.631Z,13.60
2023-02-26T14:12:02.799Z,15.35
2023-02-26T14:14:35.653Z,13.80
2023-02-26T14:17:07.317Z,13.48
2023-02-26T14:19:39.068Z,10.80
2023-02-26T14:22:23.891Z,11.15
2023-02-26T14:24:56.787Z,12.00
2023-02-26T14:27:35.910Z,12.35
2023-02-26T14:30:09.607Z,13.32
2023-02-26T14:32:55.099Z,16.52
2023-02-26T14:35:30.017Z,11.95
2023-02-26T14:38:16.872Z,14.80
2023-02-26T14:40:50.636Z,13.43
2023-02-26T14:43:37.573Z,13.23
2023-02-26T14:46:07.123Z,15.23
2023-02-26T14:48:39.657Z,15.63
2023-02-26T14:51:27.191Z,16.35
2023-02-26T14:54:04.295Z,15.32
2023-02-26T14:56:50.594Z,14.40
2023-02-26T14:59:46.228Z,14.10
2023-02-26T15:02:27.139Z,14.85
2023-02-26T15:04:57.551Z,14.07
2023-02-26T15:07:45.582Z,14.00
2023-02-26T15:10:46.124Z,12.63
2023-02-26T15:13:23.156Z,14.35
2023-02-26T15:16:00.888Z,17.15
2023-02-26T15:18:34.495Z,15.75
2023-02-26T15:21:07.726Z,16.50
2023-02-26T15:23:41.033Z,16.80
2023-02-26T15:26:18.581Z,15.85
2023-02-26T15:28:49.186Z,15.35
2023-02-26T15:31:20.948Z,16.15
2023-02-26T15:33:50.034Z,15.65
2023-02-26T15:36:22.082Z,15.93
2023-02-26T15:39:01.073Z,16.42
2023-02-26T15:41:31.606Z,19.73
2023-02-26T15:44:10.777Z,17.38
2023-02-26T15:49:15.870Z,19.33
2023-02-26T15:51:45.100Z,17.75
2023-02-26T15:54:22.553Z,18.05
2023-02-26T15:56:54.869Z,18.85
2023-02-26T15:59:29.125Z,16.75
2023-02-26T16:01:56.873Z,16.95
2023-02-26T16:04:25.066Z,17.10
2023-02-26T16:06:57.251Z,17.70
2023-02-26T16:09:34.933Z,20.40
2023-02-26T16:12:10.826Z,20.20
2023-02-26T16:14:42.400Z,22.95
2023-02-26T16:17:19.145Z,23.45
2023-02-26T16:19:50.588Z,23.13
2023-02-26T16:22:24.182Z,20.40
2023-02-26T16:25:25.447Z,20.25
2023-02-26T16:28:04.825Z,21.02
2023-02-26T16:33:13.839Z,19.50
2023-02-26T16:35:53.799Z,19.85
2023-02-26T16:38:46.221Z,20.33
2023-02-26T16:41:14.717Z,19.67
2023-02-26T16:43:45.466Z,20.25
2023-02-26T16:46:38.230Z,19.75
2023-02-26T16:49:22.939Z,20.35
2023-02-26T16:51:52.083Z,23.20
2023-02-26T16:54:27.424Z,24.25
2023-02-26T16:57:13.531Z,25.58
2023-02-26T16:59:45.371Z,26.65
2023-02-26T17:02:18.626Z,22.60
2023-02-26T17:04:52.754Z,23.83
2023-02-26T17:07:25.540Z,22.67
2023-02-26T17:09:58.568Z,23.63
2023-02-26T17:12:46.677Z,22.65
2023-02-26T17:15:19.190Z,22.67
2023-02-26T17:17:51.500Z,22.48
2023-02-26T17:20:19.415Z,21.67
2023-02-26T17:22:47.022Z,21.88
2023-02-26T17:25:20.903Z,21.25
2023-02-26T17:27:49.128Z,21.48
2023-02-26T17:30:20.469Z,20.92
2023-02-26T17:32:48.366Z,19.58
2023-02-26T17:35:20.521Z,19.98
2023-02-26T17:37:49.158Z,20.45
2023-02-26T17:40:25.276Z,15.45
2023-02-26T17:42:53.717Z,18.25
2023-02-26T17:45:21.885Z,17.52
2023-02-26T17:47:50.431Z,17.35
2023-02-26T17:50:40.419Z,18.50
2023-02-26T17:53:11.597Z,18.52
2023-02-26T17:55:40.299Z,17.45
2023-02-26T17:58:22.641Z,17.38
2023-02-26T18:00:53.323Z,19.05
2023-02-26T18:03:21.226Z,17.50
2023-02-26T18:05:50.829Z,15.82
2023-02-26T18:08:23.850Z,14.77
2023-02-26T18:10:52.779Z,12.73
2023-02-26T18:13:22.087Z,12.90
2023-02-26T18:15:51.008Z,10.13
2023-02-26T18:18:21.296Z,9.68
2023-02-26T18:20:49.017Z,8.98
2023-02-26T18:23:38.247Z,10.52
2023-02-26T18:26:06.200Z,9.07
2023-02-26T18:28:34.958Z,10.52
2023-02-26T18:31:08.643Z,8.73
2023-02-26T18:33:41.505Z,8.93
2023-02-26T18:36:24.265Z,10.32
2023-02-26T18:38:51.938Z,20.50
2023-02-26T18:41:19.564Z,20.92
2023-02-26T18:43:47.394Z,15.68
2023-02-26T18:46:15.230Z,12.07
2023-02-26T18:48:42.833Z,10.65
2023-02-26T18:51:11.405Z,8.80
2023-02-26T18:53:39.515Z,9.70
2023-02-26T18:56:09.239Z,13.48
2023-02-26T18:58:40.289Z,10.82
2023-02-26T19:01:13.266Z,9.52
2023-02-26T19:03:40.963Z,8.57
2023-02-26T19:06:12.562Z,9.40
2023-02-26T19:08:41.903Z,8.15
2023-02-26T19:11:09.425Z,9.40
2023-02-26T19:13:38.032Z,12.68
2023-02-26T19:16:05.999Z,13.70
2023-02-26T19:18:33.629Z,19.17
2023-02-26T19:21:02.585Z,16.38
2023-02-26T19:23:32.795Z,16.15
2023-02-26T19:26:00.408Z,16.30
2023-02-26T19:28:27.992Z,17.83
2023-02-26T19:30:55.723Z,15.90
2023-02-26T19:33:24.645Z,13.35
2023-02-26T19:35:52.924Z,17.35
2023-02-26T19:38:20.464Z,14.68
2023-02-26T19:40:48.495Z,11.35
2023-02-26T19:43:16.120Z,14.63
2023-02-26T19:45:43.767Z,18.60
2023-02-26T19:48:14.598Z,21.25
2023-02-26T19:50:42.586Z,19.27
2023-02-26T19:53:10.215Z,23.30
2023-02-26T19:55:38.976Z,23.25
2023-02-26T19:58:09.123Z,25.10
2023-02-26T20:00:37.064Z,27.67
2023-02-26T20:03:04.908Z,30.17
2023-02-26T20:05:32.983Z,32.17
2023-02-26T20:08:00.619Z,34.75
2023-02-26T20:10:29.310Z,35.40
2023-02-26T20:12:58.408Z,32.20
2023-02-26T20:15:25.929Z,31.27
2023-02-26T20:17:53.496Z,25.63
2023-02-26T20:20:23.102Z,20.58
2023-02-26T20:22:50.737Z,20.30
2023-02-26T20:25:20.001Z,22.00
2023-02-26T20:27:47.652Z,23.48
2023-02-26T20:30:15.724Z,23.88
2023-02-26T20:32:43.619Z,21.88
2023-02-26T20:35:11.333Z,21.38
2023-02-26T20:37:40.145Z,19.45
2023-02-26T20:40:10.525Z,19.00
2023-02-26T20:42:38.973Z,20.05
2023-02-26T20:45:09.503Z,19.00
2023-02-26T20:47:39.801Z,16.23
2023-02-26T20:50:07.944Z,15.00
2023-02-26T20:52:37.644Z,14.77
2023-02-26T20:55:06.149Z,15.65
2023-02-26T20:57:35.439Z,16.83
2023-02-26T21:00:10.430Z,15.63
2023-02-26T21:02:38.674Z,13.68
2023-02-26T21:05:07.443Z,15.13
2023-02-26T21:07:39.506Z,13.88
2023-02-26T21:10:10.981Z,13.82
2023-02-26T21:12:39.254Z,13.60
2023-02-26T21:15:11.327Z,14.55
2023-02-26T21:17:41.033Z,13.27
2023-02-26T21:20:18.258Z,14.25
2023-02-26T21:22:46.785Z,13.18
2023-02-26T21:25:14.536Z,12.75
2023-02-26T21:27:42.448Z,10.93
2023-02-26T21:30:12.097Z,11.13
2023-02-26T21:32:40.895Z,10.73
2023-02-26T21:35:16.086Z,9.88
2023-02-26T21:37:45.609Z,9.65
2023-02-26T21:40:14.851Z,9.80
2023-02-26T21:42:43.426Z,9.70
2023-02-26T21:45:12.317Z,10.23
2023-02-26T21:47:39.992Z,9.80
2023-02-26T21:50:10.712Z,10.00
2023-02-26T21:52:41.639Z,9.20
2023-02-26T21:55:09.851Z,10.57
2023-02-26T21:57:37.408Z,8.45
2023-02-26T22:00:06.491Z,9.63
2023-02-26T22:02:39.814Z,12.02
2023-02-26T22:05:07.709Z,13.82
2023-02-26T22:07:35.857Z,8.95
2023-02-26T22:10:05.070Z,22.30
2023-02-26T22:12:33.656Z,10.35
2023-02-26T22:15:01.267Z,9.75
2023-02-26T22:17:31.227Z,9.25
2023-02-26T22:19:58.961Z,8.55
2023-02-26T22:22:27.104Z,8.98
2023-02-26T22:24:55.187Z,9.38
2023-02-26T22:27:23.331Z,10.30
2023-02-26T22:29:51.039Z,10.52
2023-02-26T22:32:18.893Z,12.15
2023-02-26T22:34:46.924Z,12.95
2023-02-26T22:37:14.669Z,11.32
2023-02-26T22:39:42.674Z,12.85
2023-02-26T22:42:10.478Z,10.88
2023-02-26T22:44:38.128Z,12.25
2023-02-26T22:47:05.825Z,12.90
2023-02-26T22:49:33.663Z,12.98
2023-02-26T22:52:01.216Z,13.15
2023-02-26T22:54:28.834Z,12.77
2023-02-26T22:56:57.206Z,12.80
2023-02-26T22:59:25.217Z,13.45
2023-02-26T23:01:53.589Z,15.53
2023-02-26T23:04:21.695Z,15.68
2023-02-26T23:06:49.295Z,17.48
2023-02-26T23:09:18.199Z,15.73
2023-02-26T23:11:46.581Z,14.73
2023-02-26T23:14:14.495Z,13.98
2023-02-26T23:16:47.497Z,11.82
2023-02-26T23:19:15.394Z,12.00
2023-02-26T23:21:43.236Z,11.57
2023-02-26T23:24:10.956Z,11.23
2023-02-26T23:26:38.689Z,10.50
2023-02-26T23:29:09.857Z,10.88
2023-02-26T23:31:37.688Z,10.23
2023-02-26T23:34:07.092Z,10.55
2023-02-26T23:36:35.943Z,9.90
2023-02-26T23:39:04.110Z,10.10
2023-02-26T23:41:32.728Z,9.93
2023-02-26T23:44:00.398Z,9.90
2023-02-26T23:46:29.583Z,9.90
2023-02-26T23:48:58.236Z,10.65
2023-02-26T23:51:27.763Z,10.80
2023-02-26T23:53:55.822Z,9.70
2023-02-26T23:56:23.967Z,12.82
2023-02-26T23:58:52.512Z,16.05
